createdAt,value
2019-02-17T00:00:19.225Z,9.70
2019-02-17T00:01:19.365Z,9.70
2019-02-17T00:02:19.203Z,9.70
2019-02-17T00:03:19.190Z,9.50
2019-02-17T00:04:19.182Z,8.90
2019-02-17T00:05:19.173Z,9.90
2019-02-17T00:06:19.159Z,9.80
2019-02-17T00:07:19.555Z,10.40
2019-02-17T00:08:19.142Z,10.70
2019-02-17T00:09:19.126Z,10.20
2019-02-17T00:10:19.114Z,10.00
2019-02-17T00:11:19.103Z,9.80
2019-02-17T00:12:19.107Z,10.50
2019-02-17T00:13:19.209Z,10.90
2019-02-17T00:14:19.349Z,10.70
2019-02-17T00:15:19.065Z,10.30
2019-02-17T00:16:19.159Z,10.20
2019-02-17T00:17:19.097Z,10.10
2019-02-17T00:18:19.031Z,10.20
2019-02-17T00:19:19.316Z,10.20
2019-02-17T00:20:19.010Z,9.90
2019-02-17T00:21:19.423Z,11.00
2019-02-17T00:22:18.992Z,10.50
2019-02-17T00:23:18.991Z,10.90
2019-02-17T00:24:18.971Z,10.50
2019-02-17T00:25:20.545Z,11.00
2019-02-17T00:26:18.970Z,10.20
2019-02-17T00:27:18.936Z,10.40
2019-02-17T00:28:19.234Z,10.60
2019-02-17T00:29:18.928Z,11.10
2019-02-17T00:30:18.906Z,10.30
2019-02-17T00:31:18.929Z,11.00
2019-02-17T00:32:18.881Z,10.90
2019-02-17T00:33:18.893Z,10.90
2019-02-17T00:34:18.860Z,10.60
2019-02-17T00:35:19.257Z,11.40
2019-02-17T00:36:18.841Z,11.10
2019-02-17T00:37:18.880Z,10.20
2019-02-17T00:38:18.819Z,10.90
2019-02-17T00:39:18.812Z,10.40
2019-02-17T00:40:18.801Z,10.40
2019-02-17T00:41:18.895Z,11.20
2019-02-17T00:42:18.797Z,11.00
2019-02-17T00:43:18.823Z,10.30
2019-02-17T00:44:18.759Z,10.90
2019-02-17T00:45:18.752Z,10.40
2019-02-17T00:46:18.734Z,10.20
2019-02-17T00:47:18.722Z,9.90
2019-02-17T00:48:18.998Z,10.10
2019-02-17T00:49:18.742Z,10.50
2019-02-17T00:50:18.694Z,9.50
2019-02-17T00:51:18.688Z,9.50
2019-02-17T00:52:18.672Z,10.40
2019-02-17T00:53:18.663Z,10.10
2019-02-17T00:54:18.669Z,9.70
2019-02-17T00:55:19.880Z,10.20
2019-02-17T00:56:18.630Z,10.30
2019-02-17T00:57:18.619Z,10.20
2019-02-17T00:58:18.611Z,10.80
2019-02-17T00:59:18.602Z,10.70
2019-02-17T01:00:18.589Z,10.10
2019-02-17T01:01:18.613Z,9.90
2019-02-17T01:02:18.857Z,10.50
2019-02-17T01:03:18.571Z,10.00
2019-02-17T01:04:18.583Z,10.10
2019-02-17T01:05:18.567Z,10.60
2019-02-17T01:06:18.539Z,9.90
2019-02-17T01:07:18.587Z,10.20
2019-02-17T01:08:18.530Z,10.50
2019-02-17T01:09:18.854Z,10.00
2019-02-17T01:10:18.515Z,9.90
2019-02-17T01:11:18.478Z,10.30
2019-02-17T01:12:18.464Z,10.60
2019-02-17T01:13:18.507Z,10.60
2019-02-17T01:14:18.461Z,9.90
2019-02-17T01:15:18.434Z,10.40
2019-02-17T01:16:18.714Z,9.60
2019-02-17T01:17:18.422Z,10.40
2019-02-17T01:18:18.399Z,10.50
2019-02-17T01:19:18.434Z,9.90
2019-02-17T01:20:18.390Z,11.10
2019-02-17T01:21:18.366Z,9.40
2019-02-17T01:22:18.357Z,10.40
2019-02-17T01:23:18.625Z,9.50
2019-02-17T01:24:18.340Z,10.20
2019-02-17T01:25:18.353Z,10.10
2019-02-17T01:26:18.341Z,10.50
2019-02-17T01:27:18.309Z,9.70
2019-02-17T01:28:18.296Z,10.10
2019-02-17T01:29:20.760Z,10.40
2019-02-17T01:30:18.565Z,10.60
2019-02-17T01:31:18.314Z,10.10
2019-02-17T01:32:18.250Z,10.10
2019-02-17T01:33:18.240Z,10.20
2019-02-17T01:34:18.231Z,9.70
2019-02-17T01:35:18.222Z,10.90
2019-02-17T01:36:18.215Z,10.00
2019-02-17T01:37:18.506Z,10.60
2019-02-17T01:38:18.205Z,9.90
2019-02-17T01:39:18.220Z,9.70
2019-02-17T01:40:18.167Z,10.10
2019-02-17T01:41:18.157Z,9.80
2019-02-17T01:42:18.148Z,10.30
2019-02-17T01:43:18.167Z,10.00
2019-02-17T01:44:18.419Z,11.10
2019-02-17T01:45:18.122Z,10.30
2019-02-17T01:46:18.104Z,10.60
2019-02-17T01:47:18.095Z,10.70
2019-02-17T01:48:18.084Z,10.50
2019-02-17T01:49:18.123Z,10.50
2019-02-17T01:50:18.065Z,9.40
2019-02-17T01:51:19.818Z,10.00
2019-02-17T01:52:18.052Z,10.50
2019-02-17T01:53:18.037Z,10.30
2019-02-17T01:54:18.031Z,10.00
2019-02-17T01:55:18.035Z,9.80
2019-02-17T01:56:17.999Z,10.10
2019-02-17T01:57:19.130Z,10.30
2019-02-17T01:58:17.988Z,9.90
2019-02-17T01:59:17.967Z,10.30
2019-02-17T02:00:17.957Z,10.20
2019-02-17T02:01:17.975Z,10.10
2019-02-17T02:02:17.936Z,9.50
2019-02-17T02:03:17.930Z,10.30
2019-02-17T02:04:18.199Z,9.70
2019-02-17T02:05:17.903Z,9.60
2019-02-17T02:06:17.923Z,10.00
2019-02-17T02:07:17.933Z,9.60
2019-02-17T02:08:17.871Z,10.20
2019-02-17T02:09:17.867Z,10.80
2019-02-17T02:10:17.860Z,10.40
2019-02-17T02:11:18.132Z,9.50
2019-02-17T02:12:17.834Z,9.90
2019-02-17T02:13:17.858Z,9.90
2019-02-17T02:14:17.815Z,10.00
2019-02-17T02:15:17.796Z,10.00
2019-02-17T02:16:17.799Z,10.30
2019-02-17T02:17:17.781Z,10.00
2019-02-17T02:18:18.812Z,10.80
2019-02-17T02:19:18.185Z,10.90
2019-02-17T02:20:17.745Z,10.60
2019-02-17T02:21:17.733Z,10.30
2019-02-17T02:22:17.725Z,9.90
2019-02-17T02:23:18.141Z,10.50
2019-02-17T02:24:17.706Z,10.80
2019-02-17T02:25:18.851Z,10.30
2019-02-17T02:26:17.681Z,11.00
2019-02-17T02:27:17.678Z,10.80
2019-02-17T02:28:17.662Z,11.40
2019-02-17T02:29:17.650Z,10.30
2019-02-17T02:30:17.641Z,10.40
2019-02-17T02:31:17.776Z,11.00
2019-02-17T02:32:17.918Z,10.00
2019-02-17T02:33:17.610Z,10.60
2019-02-17T02:34:17.600Z,9.80
2019-02-17T02:35:17.586Z,10.90
2019-02-17T02:36:18.142Z,10.90
2019-02-17T02:37:17.785Z,10.40
2019-02-17T02:38:17.558Z,10.40
2019-02-17T02:39:17.846Z,10.90
2019-02-17T02:40:18.537Z,10.50
2019-02-17T02:41:17.524Z,11.00
2019-02-17T02:42:17.519Z,10.00
2019-02-17T02:43:17.649Z,10.30
2019-02-17T02:44:17.491Z,10.60
2019-02-17T02:45:17.481Z,11.10
2019-02-17T02:46:17.755Z,10.60
2019-02-17T02:47:17.472Z,10.70
2019-02-17T02:48:17.450Z,10.50
2019-02-17T02:49:17.566Z,10.30
2019-02-17T02:50:17.435Z,10.20
2019-02-17T02:51:17.439Z,10.10
2019-02-17T02:52:17.409Z,11.00
2019-02-17T02:53:17.688Z,10.00
2019-02-17T02:54:17.388Z,10.60
2019-02-17T02:55:17.497Z,10.40
2019-02-17T02:56:17.384Z,10.50
2019-02-17T02:57:17.369Z,10.20
2019-02-17T02:58:17.349Z,10.60
2019-02-17T02:59:17.340Z,10.10
2019-02-17T03:01:40.180Z,9.90
2019-02-17T03:02:39.695Z,10.60
2019-02-17T03:03:39.678Z,10.80
2019-02-17T03:04:39.678Z,10.10
2019-02-17T03:05:39.671Z,10.80
2019-02-17T03:06:39.649Z,11.10
2019-02-17T03:07:40.013Z,10.70
2019-02-17T03:08:39.626Z,10.50
2019-02-17T03:09:39.638Z,11.10
2019-02-17T03:10:39.615Z,11.00
2019-02-17T03:11:39.596Z,11.70
2019-02-17T03:12:39.613Z,9.80
2019-02-17T03:13:39.631Z,10.90
2019-02-17T03:14:40.703Z,10.80
2019-02-17T03:15:39.561Z,10.60
2019-02-17T03:16:39.540Z,10.00
2019-02-17T03:17:39.557Z,11.10
2019-02-17T03:18:39.562Z,11.10
2019-02-17T03:19:39.869Z,10.50
2019-02-17T03:20:39.518Z,11.60
2019-02-17T03:21:39.800Z,10.90
2019-02-17T03:22:39.508Z,11.20
2019-02-17T03:23:39.477Z,10.70
2019-02-17T03:24:39.497Z,10.70
2019-02-17T03:25:39.504Z,11.70
2019-02-17T03:26:39.453Z,11.10
2019-02-17T03:27:39.429Z,11.30
2019-02-17T03:28:39.754Z,11.50
2019-02-17T03:29:39.432Z,11.00
2019-02-17T03:30:39.393Z,11.50
2019-02-17T03:31:39.478Z,10.20
2019-02-17T03:32:39.414Z,10.30
2019-02-17T03:33:39.366Z,11.40
2019-02-17T03:34:39.365Z,11.00
2019-02-17T03:35:39.674Z,10.50
2019-02-17T03:36:39.333Z,10.90
2019-02-17T03:37:39.429Z,10.50
2019-02-17T03:38:39.341Z,11.20
2019-02-17T03:39:39.305Z,11.20
2019-02-17T03:40:39.315Z,10.80
2019-02-17T03:41:39.307Z,10.60
2019-02-17T03:42:39.574Z,11.20
2019-02-17T03:43:39.306Z,11.30
2019-02-17T03:44:39.262Z,11.10
2019-02-17T03:45:39.260Z,11.30
2019-02-17T03:46:39.241Z,10.80
2019-02-17T03:47:39.226Z,11.00
2019-02-17T03:48:39.213Z,10.90
2019-02-17T03:49:40.556Z,10.40
2019-02-17T03:50:39.193Z,10.50
2019-02-17T03:51:39.175Z,10.60
2019-02-17T03:52:39.166Z,11.70
2019-02-17T03:53:39.171Z,11.30
2019-02-17T03:54:39.163Z,11.40
2019-02-17T03:55:39.210Z,11.20
2019-02-17T03:56:40.463Z,11.00
2019-02-17T03:57:39.115Z,11.80
2019-02-17T03:58:39.123Z,12.10
2019-02-17T03:59:39.117Z,10.60
2019-02-17T04:00:39.092Z,11.70
2019-02-17T04:01:39.100Z,11.10
2019-02-17T04:02:39.074Z,11.10
2019-02-17T04:03:39.356Z,11.60
2019-02-17T04:04:39.077Z,11.40
2019-02-17T04:05:39.045Z,11.20
2019-02-17T04:06:39.027Z,11.30
2019-02-17T04:07:39.081Z,11.70
2019-02-17T04:08:38.985Z,11.00
2019-02-17T04:09:39.003Z,11.40
2019-02-17T04:10:40.297Z,11.60
2019-02-17T04:11:38.988Z,11.00
2019-02-17T04:12:39.737Z,10.70
2019-02-17T04:13:39.029Z,10.90
2019-02-17T04:14:38.962Z,12.10
2019-02-17T04:15:38.932Z,12.10
2019-02-17T04:16:38.902Z,12.20
2019-02-17T04:17:39.259Z,11.90
2019-02-17T04:18:38.895Z,11.30
2019-02-17T04:19:38.921Z,12.20
2019-02-17T04:20:38.876Z,11.30
2019-02-17T04:21:38.869Z,12.40
2019-02-17T04:22:38.843Z,11.80
2019-02-17T04:23:38.847Z,11.10
2019-02-17T04:24:39.159Z,11.60
2019-02-17T04:25:38.859Z,10.50
2019-02-17T04:26:38.816Z,11.80
2019-02-17T04:27:38.817Z,12.00
2019-02-17T04:28:38.803Z,11.10
2019-02-17T04:29:38.778Z,11.70
2019-02-17T04:30:38.754Z,10.70
2019-02-17T04:31:38.938Z,12.10
2019-02-17T04:32:38.748Z,12.60
2019-02-17T04:33:38.823Z,10.90
2019-02-17T04:34:38.752Z,12.70
2019-02-17T04:35:38.710Z,13.20
2019-02-17T04:36:38.699Z,12.10
2019-02-17T04:37:39.059Z,11.50
2019-02-17T04:38:38.717Z,13.20
2019-02-17T04:39:38.675Z,14.80
2019-02-17T04:40:38.670Z,11.20
2019-02-17T04:41:38.679Z,11.90
2019-02-17T04:42:38.632Z,12.50
2019-02-17T04:43:39.306Z,11.40
2019-02-17T04:44:38.639Z,12.60
2019-02-17T04:45:38.622Z,12.20
2019-02-17T04:46:38.595Z,13.50
2019-02-17T04:47:38.576Z,12.70
2019-02-17T04:48:38.586Z,12.20
2019-02-17T04:49:39.188Z,11.60
2019-02-17T04:50:38.547Z,11.80
2019-02-17T04:51:38.547Z,12.00
2019-02-17T04:52:38.556Z,12.50
2019-02-17T04:53:38.508Z,11.60
2019-02-17T04:54:38.511Z,12.10
2019-02-17T04:55:38.552Z,12.40
2019-02-17T04:56:38.533Z,12.00
2019-02-17T04:57:38.495Z,12.00
2019-02-17T04:58:38.492Z,13.30
2019-02-17T04:59:38.459Z,13.00
2019-02-17T05:00:40.486Z,12.00
2019-02-17T05:01:38.485Z,11.20
2019-02-17T05:02:38.415Z,12.00
2019-02-17T05:03:38.422Z,12.60
2019-02-17T05:04:38.391Z,12.00
2019-02-17T05:05:38.377Z,12.70
2019-02-17T05:06:40.785Z,11.70
2019-02-17T05:07:38.735Z,12.00
2019-02-17T05:08:38.382Z,12.10
2019-02-17T05:09:38.380Z,11.80
2019-02-17T05:10:38.352Z,13.00
2019-02-17T05:11:38.337Z,12.10
2019-02-17T05:12:38.307Z,12.60
2019-02-17T05:13:38.365Z,12.20
2019-02-17T05:14:38.626Z,12.50
2019-02-17T05:15:38.307Z,13.20
2019-02-17T05:16:38.294Z,12.40
2019-02-17T05:17:38.256Z,11.60
2019-02-17T05:18:38.253Z,13.40
2019-02-17T05:19:38.315Z,13.30
2019-02-17T05:20:38.249Z,13.30
2019-02-17T05:21:38.213Z,13.00
2019-02-17T05:22:39.420Z,12.40
2019-02-17T05:23:38.254Z,12.60
2019-02-17T05:24:38.210Z,13.20
2019-02-17T05:25:38.242Z,12.80
2019-02-17T05:26:38.723Z,12.80
2019-02-17T05:27:38.506Z,14.30
2019-02-17T05:28:38.215Z,12.30
2019-02-17T05:29:38.136Z,12.90
2019-02-17T05:30:38.143Z,13.00
2019-02-17T05:31:38.147Z,13.00
2019-02-17T05:32:38.125Z,12.60
2019-02-17T05:33:38.379Z,13.30
2019-02-17T05:34:38.134Z,12.80
2019-02-17T05:35:38.162Z,12.00
2019-02-17T05:36:38.699Z,12.70
2019-02-17T05:37:38.101Z,13.10
2019-02-17T05:38:38.067Z,12.80
2019-02-17T05:39:38.027Z,12.10
2019-02-17T05:40:38.030Z,12.30
2019-02-17T05:41:38.061Z,12.50
2019-02-17T05:42:37.984Z,12.40
2019-02-17T05:43:38.211Z,14.10
2019-02-17T05:44:37.981Z,12.50
2019-02-17T05:45:38.447Z,13.40
2019-02-17T05:46:37.974Z,13.30
2019-02-17T05:47:37.937Z,13.40
2019-02-17T05:48:37.937Z,13.60
2019-02-17T05:49:38.015Z,13.30
2019-02-17T05:50:37.937Z,12.80
2019-02-17T05:51:37.897Z,13.50
2019-02-17T05:52:37.887Z,14.20
2019-02-17T05:53:37.931Z,13.90
2019-02-17T05:54:37.869Z,14.10
2019-02-17T05:55:37.935Z,14.00
2019-02-17T05:56:37.883Z,14.00
2019-02-17T05:57:37.838Z,13.90
2019-02-17T05:58:38.140Z,13.30
2019-02-17T05:59:37.815Z,13.10
2019-02-17T06:00:38.735Z,13.60
2019-02-17T06:01:37.888Z,13.40
2019-02-17T06:02:37.819Z,13.50
2019-02-17T06:03:37.767Z,14.40
2019-02-17T06:04:37.753Z,14.00
2019-02-17T06:05:38.067Z,13.90
2019-02-17T06:06:37.765Z,13.80
2019-02-17T06:07:38.726Z,14.10
2019-02-17T06:08:37.730Z,14.10
2019-02-17T06:09:37.715Z,14.40
2019-02-17T06:10:37.695Z,15.20
2019-02-17T06:11:37.709Z,13.90
2019-02-17T06:12:38.513Z,14.20
2019-02-17T06:13:37.716Z,14.30
2019-02-17T06:14:37.658Z,14.10
2019-02-17T06:15:37.666Z,13.80
2019-02-17T06:16:37.628Z,14.60
2019-02-17T06:17:37.619Z,13.90
2019-02-17T06:18:37.611Z,14.50
2019-02-17T06:19:37.932Z,15.10
2019-02-17T06:20:37.621Z,14.00
2019-02-17T06:21:37.581Z,13.90
2019-02-17T06:22:37.567Z,14.30
2019-02-17T06:23:37.583Z,13.30
2019-02-17T06:24:37.574Z,14.60
2019-02-17T06:25:37.575Z,13.10
2019-02-17T06:26:37.838Z,13.70
2019-02-17T06:27:37.517Z,13.80
2019-02-17T06:28:37.539Z,14.00
2019-02-17T06:29:37.517Z,13.40
2019-02-17T06:30:37.512Z,13.50
2019-02-17T06:31:37.532Z,14.40
2019-02-17T06:32:37.464Z,12.60
2019-02-17T06:33:37.759Z,14.00
2019-02-17T06:34:37.458Z,13.80
2019-02-17T06:35:38.223Z,14.00
2019-02-17T06:36:37.419Z,14.60
2019-02-17T06:37:37.474Z,15.20
2019-02-17T06:38:37.424Z,15.30
2019-02-17T06:39:37.392Z,14.00
2019-02-17T06:40:37.687Z,14.60
2019-02-17T06:41:37.379Z,14.60
2019-02-17T06:42:37.362Z,15.20
2019-02-17T06:43:37.410Z,14.10
2019-02-17T06:44:37.374Z,14.70
2019-02-17T06:45:37.357Z,14.60
2019-02-17T06:46:37.334Z,13.80
2019-02-17T06:47:37.821Z,15.40
2019-02-17T06:48:37.304Z,14.90
2019-02-17T06:49:37.390Z,15.10
2019-02-17T06:50:37.285Z,14.30
2019-02-17T06:51:37.298Z,14.40
2019-02-17T06:52:37.279Z,15.80
2019-02-17T06:53:37.259Z,13.90
2019-02-17T06:54:37.544Z,14.40
2019-02-17T06:55:37.771Z,14.10
2019-02-17T06:56:37.237Z,14.20
2019-02-17T06:57:38.199Z,15.00
2019-02-17T06:58:37.207Z,14.80
2019-02-17T06:59:37.183Z,14.90
2019-02-17T07:00:37.193Z,14.40
2019-02-17T07:01:37.998Z,14.40
2019-02-17T07:02:37.165Z,14.80
2019-02-17T07:03:37.190Z,14.70
2019-02-17T07:04:37.702Z,14.40
2019-02-17T07:05:38.713Z,14.60
2019-02-17T07:06:38.138Z,13.40
2019-02-17T07:07:37.473Z,13.50
2019-02-17T07:08:37.112Z,14.80
2019-02-17T07:09:37.123Z,14.20
2019-02-17T07:10:37.100Z,14.00
2019-02-17T07:11:37.100Z,14.90
2019-02-17T07:12:37.069Z,15.00
2019-02-17T07:13:37.268Z,13.60
2019-02-17T07:14:38.403Z,14.00
2019-02-17T07:15:37.047Z,14.70
2019-02-17T07:16:37.685Z,14.90
2019-02-17T07:17:36.996Z,14.40
2019-02-17T07:18:36.992Z,14.40
2019-02-17T07:19:37.109Z,14.70
2019-02-17T07:20:36.963Z,14.50
2019-02-17T07:21:37.288Z,14.40
2019-02-17T07:22:37.694Z,14.00
2019-02-17T07:23:36.939Z,14.30
2019-02-17T07:24:36.939Z,14.40
2019-02-17T07:25:37.061Z,14.20
2019-02-17T07:26:37.756Z,14.50
2019-02-17T07:27:36.910Z,14.70
2019-02-17T07:28:37.164Z,14.80
2019-02-17T07:29:36.872Z,14.00
2019-02-17T07:30:36.871Z,14.80
2019-02-17T07:31:37.155Z,14.40
2019-02-17T07:32:36.841Z,14.80
2019-02-17T07:33:36.843Z,14.30
2019-02-17T07:34:36.857Z,14.50
2019-02-17T07:35:37.139Z,14.20
2019-02-17T07:36:36.810Z,14.00
2019-02-17T07:37:37.650Z,13.50
2019-02-17T07:38:36.800Z,14.50
2019-02-17T07:39:36.802Z,14.40
2019-02-17T07:40:36.753Z,15.00
2019-02-17T07:41:36.756Z,15.00
2019-02-17T07:42:36.739Z,13.50
2019-02-17T07:43:36.774Z,14.30
2019-02-17T07:44:36.740Z,14.10
2019-02-17T07:45:36.709Z,13.70
2019-02-17T07:46:36.693Z,13.90
2019-02-17T07:47:36.675Z,14.30
2019-02-17T07:48:37.193Z,14.00
2019-02-17T07:49:36.755Z,13.50
2019-02-17T07:50:36.643Z,14.50
2019-02-17T07:51:36.652Z,15.10
2019-02-17T07:52:36.634Z,14.30
2019-02-17T07:53:36.625Z,13.80
2019-02-17T07:54:36.914Z,13.70
2019-02-17T07:55:36.651Z,13.80
2019-02-17T07:56:36.608Z,14.20
2019-02-17T07:57:36.577Z,14.80
2019-02-17T07:58:36.563Z,14.50
2019-02-17T07:59:36.561Z,13.90
2019-02-17T08:00:36.870Z,14.40
2019-02-17T08:01:45.029Z,14.70
2019-02-17T08:02:37.525Z,13.00
2019-02-17T08:03:36.544Z,15.10
2019-02-17T08:04:36.511Z,13.40
2019-02-17T08:05:36.495Z,14.50
2019-02-17T08:06:36.824Z,14.10
2019-02-17T08:07:36.542Z,14.30
2019-02-17T08:08:36.488Z,13.60
2019-02-17T08:09:36.455Z,13.80
2019-02-17T08:10:36.455Z,14.10
2019-02-17T08:11:36.433Z,14.10
2019-02-17T08:12:36.434Z,14.50
2019-02-17T08:13:40.094Z,13.60
2019-02-17T08:14:36.494Z,14.70
2019-02-17T08:15:36.402Z,14.70
2019-02-17T08:16:36.392Z,14.40
2019-02-17T08:17:36.365Z,15.30
2019-02-17T08:18:36.375Z,14.70
2019-02-17T08:19:36.441Z,13.90
2019-02-17T08:20:36.777Z,13.60
2019-02-17T08:21:36.340Z,13.80
2019-02-17T08:22:36.318Z,15.00
2019-02-17T08:23:36.287Z,13.60
2019-02-17T08:24:36.294Z,13.80
2019-02-17T08:25:36.389Z,13.40
2019-02-17T08:26:36.267Z,14.30
2019-02-17T08:27:36.574Z,14.90
2019-02-17T08:28:36.278Z,14.00
2019-02-17T08:29:36.237Z,13.80
2019-02-17T08:30:36.256Z,13.40
2019-02-17T08:31:36.276Z,13.60
2019-02-17T08:32:36.201Z,15.10
2019-02-17T08:33:36.195Z,14.20
2019-02-17T08:34:36.476Z,14.50
2019-02-17T08:35:36.175Z,13.90
2019-02-17T08:36:36.166Z,14.50
2019-02-17T08:37:36.201Z,14.50
2019-02-17T08:38:36.157Z,14.60
2019-02-17T08:39:36.145Z,14.30
2019-02-17T08:40:36.675Z,14.50
2019-02-17T08:41:36.415Z,14.40
2019-02-17T08:42:36.115Z,14.40
2019-02-17T08:43:36.147Z,14.30
2019-02-17T08:44:36.716Z,14.20
2019-02-17T08:45:36.671Z,14.50
2019-02-17T08:46:36.144Z,14.10
2019-02-17T08:47:36.053Z,14.30
2019-02-17T08:48:36.984Z,13.80
2019-02-17T08:49:36.070Z,14.90
2019-02-17T08:50:36.151Z,14.00
2019-02-17T08:51:36.660Z,13.80
2019-02-17T08:52:35.989Z,14.80
2019-02-17T08:53:35.975Z,13.90
2019-02-17T08:54:36.692Z,13.30
2019-02-17T08:55:36.341Z,13.60
2019-02-17T08:56:36.689Z,14.40
2019-02-17T08:57:37.981Z,14.00
2019-02-17T08:58:36.722Z,14.20
2019-02-17T08:59:35.940Z,14.20
2019-02-17T09:00:35.931Z,13.80
2019-02-17T09:01:37.205Z,14.20
2019-02-17T09:02:36.430Z,14.20
2019-02-17T09:03:36.053Z,15.80
2019-02-17T09:04:35.865Z,13.50
2019-02-17T09:05:43.880Z,15.40
2019-02-17T09:06:36.849Z,14.40
2019-02-17T09:07:35.950Z,13.50
2019-02-17T09:08:35.840Z,14.90
2019-02-17T09:09:36.177Z,14.30
2019-02-17T09:10:35.798Z,13.90
2019-02-17T09:11:35.807Z,15.10
2019-02-17T09:12:35.769Z,14.40
2019-02-17T09:13:35.830Z,14.80
2019-02-17T09:14:35.759Z,14.00
2019-02-17T09:15:35.832Z,14.40
2019-02-17T09:16:35.874Z,14.30
2019-02-17T09:17:35.743Z,14.30
2019-02-17T09:18:35.890Z,14.30
2019-02-17T09:19:36.271Z,14.10
2019-02-17T09:20:35.744Z,14.80
2019-02-17T09:21:35.760Z,14.30
2019-02-17T09:22:35.674Z,14.00
2019-02-17T09:23:35.709Z,14.40
2019-02-17T09:24:36.197Z,14.40
2019-02-17T09:25:35.808Z,15.10
2019-02-17T09:26:35.733Z,15.00
2019-02-17T09:27:36.068Z,14.60
2019-02-17T09:28:35.619Z,14.50
2019-02-17T09:29:35.729Z,13.30
2019-02-17T09:30:35.629Z,14.30
2019-02-17T09:31:35.898Z,14.60
2019-02-17T09:32:35.595Z,14.00
2019-02-17T09:33:35.635Z,14.80
2019-02-17T09:34:35.609Z,14.90
2019-02-17T09:35:35.554Z,15.00
2019-02-17T09:36:35.530Z,14.30
2019-02-17T09:37:36.625Z,15.10
2019-02-17T09:38:35.571Z,13.90
2019-02-17T09:40:44.879Z,12.80
2019-02-17T09:41:44.833Z,15.30
2019-02-17T09:42:44.871Z,13.90
2019-02-17T09:43:45.676Z,14.00
2019-02-17T09:44:44.799Z,14.70
2019-02-17T09:45:44.784Z,15.00
2019-02-17T09:46:45.140Z,14.80
2019-02-17T09:47:44.788Z,14.50
2019-02-17T09:48:44.790Z,14.40
2019-02-17T09:49:44.741Z,14.70
2019-02-17T09:50:44.816Z,15.20
2019-02-17T09:51:44.732Z,13.70
2019-02-17T09:52:45.456Z,13.90
2019-02-17T09:53:44.701Z,14.80
2019-02-17T09:54:44.781Z,14.50
2019-02-17T09:55:44.675Z,14.70
2019-02-17T09:56:44.685Z,14.60
2019-02-17T09:57:44.658Z,14.30
2019-02-17T09:58:45.917Z,14.70
2019-02-17T09:59:44.634Z,14.40
2019-02-17T10:00:44.748Z,14.50
2019-02-17T10:03:23.778Z,13.30
2019-02-17T10:04:22.701Z,13.90
2019-02-17T10:05:22.682Z,20.30
2019-02-17T10:06:22.676Z,14.60
2019-02-17T10:07:22.684Z,14.80
2019-02-17T10:08:22.656Z,14.70
2019-02-17T10:09:22.989Z,14.60
2019-02-17T10:10:22.632Z,14.90
2019-02-17T10:11:22.627Z,14.60
2019-02-17T10:12:22.611Z,14.10
2019-02-17T10:13:22.607Z,14.00
2019-02-17T10:14:22.780Z,13.70
2019-02-17T10:15:23.271Z,13.50
2019-02-17T10:16:22.565Z,15.40
2019-02-17T10:17:22.554Z,13.70
2019-02-17T10:18:22.558Z,13.20
2019-02-17T10:19:22.539Z,13.70
2019-02-17T10:20:24.435Z,13.50
2019-02-17T10:21:23.863Z,14.50
2019-02-17T10:22:22.755Z,13.90
2019-02-17T10:23:22.582Z,15.60
2019-02-17T10:24:22.500Z,13.90
2019-02-17T10:25:22.481Z,14.60
2019-02-17T10:26:22.464Z,14.60
2019-02-17T10:27:22.499Z,14.20
2019-02-17T10:28:22.448Z,15.00
2019-02-17T10:29:22.426Z,13.60
2019-02-17T10:30:22.419Z,14.70
2019-02-17T10:31:22.414Z,14.20
2019-02-17T10:32:23.284Z,14.00
2019-02-17T10:33:22.427Z,13.90
2019-02-17T10:34:22.384Z,13.50
2019-02-17T10:35:22.367Z,13.60
2019-02-17T10:36:22.383Z,14.40
2019-02-17T10:37:22.360Z,13.80
2019-02-17T10:38:22.347Z,14.30
2019-02-17T10:39:23.016Z,13.40
2019-02-17T10:40:23.323Z,13.70
2019-02-17T10:41:22.304Z,13.50
2019-02-17T10:42:22.291Z,13.70
2019-02-17T10:43:22.285Z,13.50
2019-02-17T10:44:22.271Z,14.00
2019-02-17T10:45:22.580Z,13.30
2019-02-17T10:46:22.738Z,13.10
2019-02-17T10:47:22.262Z,12.70
2019-02-17T10:48:22.229Z,13.60
2019-02-17T10:49:22.251Z,14.10
2019-02-17T10:50:22.208Z,12.80
2019-02-17T10:51:22.265Z,13.30
2019-02-17T10:52:22.191Z,12.90
2019-02-17T10:53:23.074Z,13.90
2019-02-17T10:54:23.145Z,13.30
2019-02-17T10:55:22.154Z,14.00
2019-02-17T10:56:22.143Z,13.40
2019-02-17T10:57:22.203Z,13.70
2019-02-17T10:58:22.125Z,13.40
2019-02-17T10:59:22.119Z,14.00
2019-02-17T11:00:22.538Z,13.30
2019-02-17T11:01:22.154Z,13.70
2019-02-17T11:02:22.080Z,13.10
2019-02-17T11:03:22.133Z,13.60
2019-02-17T11:04:22.186Z,13.70
2019-02-17T11:05:22.048Z,12.90
2019-02-17T11:06:22.098Z,14.00
2019-02-17T11:07:23.156Z,13.30
2019-02-17T11:08:22.121Z,13.70
2019-02-17T11:09:23.377Z,13.20
2019-02-17T11:10:22.838Z,14.30
2019-02-17T11:11:22.047Z,13.80
2019-02-17T11:12:23.640Z,13.40
2019-02-17T11:13:22.040Z,13.10
2019-02-17T11:14:22.314Z,14.30
2019-02-17T11:15:22.827Z,13.30
2019-02-17T11:16:21.939Z,13.80
2019-02-17T11:17:21.922Z,13.60
2019-02-17T11:18:22.782Z,13.40
2019-02-17T11:19:21.905Z,12.90
2019-02-17T11:20:21.973Z,13.50
2019-02-17T11:21:22.342Z,13.60
2019-02-17T11:22:23.361Z,12.90
2019-02-17T11:23:21.859Z,12.90
2019-02-17T11:24:21.875Z,12.90
2019-02-17T11:25:21.841Z,13.10
2019-02-17T11:26:21.925Z,12.50
2019-02-17T11:27:21.855Z,13.20
2019-02-17T11:28:22.326Z,13.30
2019-02-17T11:29:21.838Z,12.70
2019-02-17T11:30:21.856Z,13.20
2019-02-17T11:31:21.792Z,13.80
2019-02-17T11:32:21.863Z,12.70
2019-02-17T11:33:21.847Z,13.60
2019-02-17T11:34:21.792Z,12.90
2019-02-17T11:35:22.042Z,13.50
2019-02-17T11:36:21.758Z,12.60
2019-02-17T11:37:21.711Z,13.30
2019-02-17T11:38:21.715Z,12.70
2019-02-17T11:39:21.732Z,12.20
2019-02-17T11:40:21.679Z,12.60
2019-02-17T11:41:21.671Z,12.00
2019-02-17T11:42:21.944Z,12.90
2019-02-17T11:43:21.656Z,13.40
2019-02-17T11:44:21.642Z,11.90
2019-02-17T11:45:21.669Z,11.70
2019-02-17T11:46:21.740Z,13.40
2019-02-17T11:47:21.604Z,12.40
2019-02-17T11:48:21.608Z,13.20
2019-02-17T11:49:22.811Z,13.10
2019-02-17T11:50:21.575Z,12.30
2019-02-17T11:51:21.703Z,13.80
2019-02-17T11:52:21.610Z,12.90
2019-02-17T11:53:21.541Z,13.60
2019-02-17T11:54:21.535Z,13.00
2019-02-17T11:55:22.888Z,12.40
2019-02-17T11:56:22.721Z,12.70
2019-02-17T11:57:21.645Z,12.70
2019-02-17T11:58:22.238Z,12.50
2019-02-17T11:59:21.686Z,12.90
2019-02-17T12:00:21.640Z,12.90
2019-02-17T12:01:21.463Z,12.70
2019-02-17T12:02:24.830Z,12.10
2019-02-17T12:03:21.491Z,12.10
2019-02-17T12:04:21.463Z,12.10
2019-02-17T12:05:21.420Z,12.80
2019-02-17T12:06:21.426Z,13.40
2019-02-17T12:07:21.443Z,12.60
2019-02-17T12:08:21.404Z,12.60
2019-02-17T12:09:21.802Z,12.80
2019-02-17T12:10:21.388Z,12.20
2019-02-17T12:11:21.364Z,12.70
2019-02-17T12:12:21.346Z,12.20
2019-02-17T12:13:21.355Z,12.70
2019-02-17T12:14:21.337Z,12.00
2019-02-17T12:15:21.366Z,12.90
2019-02-17T12:16:21.339Z,12.60
2019-02-17T12:17:21.292Z,12.30
2019-02-17T12:18:21.303Z,12.10
2019-02-17T12:19:21.283Z,12.20
2019-02-17T12:20:21.264Z,11.70
2019-02-17T12:21:21.801Z,13.20
2019-02-17T12:22:21.829Z,12.10
2019-02-17T12:23:21.236Z,12.30
2019-02-17T12:24:21.237Z,12.50
2019-02-17T12:25:21.349Z,12.90
2019-02-17T12:26:21.205Z,12.70
2019-02-17T12:27:21.279Z,12.90
2019-02-17T12:28:21.558Z,12.20
2019-02-17T12:29:21.298Z,12.40
2019-02-17T12:30:21.209Z,12.20
2019-02-17T12:31:21.431Z,12.20
2019-02-17T12:32:21.328Z,11.90
2019-02-17T12:33:21.819Z,13.40
2019-02-17T12:34:22.342Z,12.40
2019-02-17T12:35:21.567Z,12.10
2019-02-17T12:36:21.159Z,12.20
2019-02-17T12:37:21.098Z,12.50
2019-02-17T12:38:21.083Z,12.30
2019-02-17T12:39:21.143Z,11.80
2019-02-17T12:40:21.779Z,12.30
2019-02-17T12:41:21.069Z,11.90
2019-02-17T12:42:21.776Z,12.60
2019-02-17T12:43:21.038Z,12.60
2019-02-17T12:44:21.045Z,11.60
2019-02-17T12:45:21.096Z,11.70
2019-02-17T12:46:21.810Z,12.10
2019-02-17T12:47:21.280Z,12.40
2019-02-17T12:48:21.008Z,11.80
2019-02-17T12:49:20.975Z,12.30
2019-02-17T12:50:21.018Z,11.70
2019-02-17T12:51:21.012Z,11.70
2019-02-17T12:52:20.998Z,12.70
2019-02-17T12:53:20.934Z,11.70
2019-02-17T12:54:28.854Z,12.90
2019-02-17T12:55:21.937Z,12.80
2019-02-17T12:56:20.985Z,12.70
2019-02-17T12:57:20.936Z,11.90